Harmon, Oklahoma
Current Conditions -  °F | °C
As of 3:18 AM on Thursday 23 Oct 2014 (Local Time) from KGAG Reporting Station
Haze Haze  
Wind Chill: 59°   Ceiling: 7500
Heat Index: 59°   Visibility: 5mi
Dew Point: 58°   Wind: 9mph
Humidity: 96%   Direction: 200°SSW
Pressure: 30.09"   Gusts: NA
Location:  36.0611°N, 99.7076°W
Report Text: KGAG 230818Z AUTO 20008KT 5SM BR SCT011 BKN075 15/14 A3009 RMK AO2 T01500144
Loading
Personal Weather Stations






























Interactive Weather Map
Tropical Storm Tracking
New forecast layout! Learn more

10-Day Weather Forecast

Advertisements
Track Severe Weather on mobile